createdAt,value
2022-08-31T00:03:15.271Z,18.81
2022-08-31T00:08:17.918Z,19.10
2022-08-31T00:13:20.163Z,19.21
2022-08-31T00:18:23.432Z,19.09
2022-08-31T00:23:26.155Z,18.82
2022-08-31T00:28:28.466Z,19.00
2022-08-31T00:33:30.677Z,18.94
2022-08-31T00:38:34.592Z,18.97
2022-08-31T00:43:48.657Z,18.97
2022-08-31T00:49:12.539Z,18.79
2022-08-31T00:54:19.389Z,18.81
2022-08-31T00:59:22.325Z,18.54
2022-08-31T01:04:24.580Z,18.62
2022-08-31T01:09:27.819Z,18.75
2022-08-31T01:14:30.333Z,18.52
2022-08-31T01:19:35.545Z,18.66
2022-08-31T01:24:39.963Z,18.48
2022-08-31T01:29:42.357Z,18.28
2022-08-31T01:34:44.587Z,18.27
2022-08-31T01:39:47.061Z,18.30
2022-08-31T01:44:49.460Z,18.50
2022-08-31T01:49:51.825Z,18.29
2022-08-31T01:54:58.344Z,18.16
2022-08-31T02:00:04.428Z,18.26
2022-08-31T02:05:22.938Z,17.64
2022-08-31T02:10:25.716Z,18.17
2022-08-31T02:15:27.975Z,18.19
2022-08-31T02:20:30.428Z,18.18
2022-08-31T02:25:33.146Z,18.12
2022-08-31T02:30:36.883Z,17.88
2022-08-31T02:35:39.247Z,17.99
2022-08-31T02:40:42.138Z,17.89
2022-08-31T02:45:45.530Z,17.88
2022-08-31T02:51:05.479Z,17.85
2022-08-31T02:56:08.364Z,17.78
2022-08-31T03:01:10.953Z,17.86
2022-08-31T03:06:13.648Z,17.95
2022-08-31T03:11:16.755Z,17.29
2022-08-31T03:16:19.453Z,17.66
2022-08-31T03:21:21.811Z,17.58
2022-08-31T03:26:24.559Z,17.80
2022-08-31T03:31:27.094Z,17.67
2022-08-31T03:36:30.613Z,17.71
2022-08-31T03:41:33.492Z,17.60
2022-08-31T03:46:36.205Z,17.61
2022-08-31T03:51:38.810Z,17.59
2022-08-31T03:56:42.190Z,17.86
2022-08-31T04:01:44.604Z,17.62
2022-08-31T04:07:05.494Z,17.84
2022-08-31T04:12:40.192Z,17.76
2022-08-31T04:18:01.728Z,17.56
2022-08-31T04:23:20.191Z,17.85
2022-08-31T04:28:26.957Z,17.93
2022-08-31T04:33:29.260Z,17.74
2022-08-31T04:38:33.259Z,17.83
2022-08-31T04:43:37.203Z,18.11
2022-08-31T04:48:40.436Z,18.10
2022-08-31T04:53:44.414Z,18.09
2022-08-31T04:58:53.078Z,18.20
2022-08-31T05:03:57.092Z,17.92
2022-08-31T05:09:04.164Z,18.07
2022-08-31T05:14:07.369Z,18.05
2022-08-31T05:19:13.917Z,17.78
2022-08-31T05:24:22.737Z,17.73
2022-08-31T05:29:26.418Z,17.81
2022-08-31T05:34:45.808Z,17.80
2022-08-31T05:39:48.231Z,17.69
2022-08-31T05:44:50.661Z,17.71
2022-08-31T05:49:53.129Z,17.69
2022-08-31T05:54:56.933Z,17.93
2022-08-31T05:59:59.194Z,17.82
2022-08-31T06:05:02.375Z,17.90
2022-08-31T06:10:06.027Z,17.98
2022-08-31T06:15:09.898Z,17.74
2022-08-31T06:20:17.007Z,18.16
2022-08-31T06:25:23.801Z,18.12
2022-08-31T06:30:27.739Z,18.28
2022-08-31T06:35:32.156Z,18.22
2022-08-31T06:40:54.688Z,18.08
2022-08-31T06:46:27.096Z,18.38
2022-08-31T06:51:39.126Z,18.32
2022-08-31T06:56:41.565Z,18.19
2022-08-31T07:02:07.680Z,18.47
2022-08-31T07:07:11.704Z,18.24
2022-08-31T07:12:15.823Z,18.32
2022-08-31T07:17:18.220Z,18.42
2022-08-31T07:22:20.625Z,18.44
2022-08-31T07:27:27.709Z,18.16
2022-08-31T07:32:34.392Z,18.47
2022-08-31T07:37:56.004Z,18.41
2022-08-31T07:43:04.866Z,18.03
2022-08-31T07:48:10.507Z,18.13
2022-08-31T07:53:28.642Z,18.49
2022-08-31T07:58:50.379Z,18.41
2022-08-31T08:03:55.116Z,18.30
2022-08-31T08:09:24.923Z,18.06
2022-08-31T08:14:45.989Z,18.49
2022-08-31T08:19:55.169Z,18.25
2022-08-31T08:25:01.320Z,18.76
2022-08-31T08:30:16.592Z,18.76
2022-08-31T08:35:19.713Z,18.83
2022-08-31T08:40:30.661Z,18.83
2022-08-31T08:45:34.171Z,18.62
2022-08-31T08:50:40.094Z,18.74
2022-08-31T08:55:42.941Z,18.89
2022-08-31T09:00:51.459Z,18.38
2022-08-31T09:06:09.851Z,18.80
2022-08-31T09:11:50.353Z,18.78
2022-08-31T09:17:04.447Z,18.80
2022-08-31T09:22:07.342Z,18.43
2022-08-31T09:27:18.462Z,18.99
2022-08-31T09:32:26.661Z,19.04
2022-08-31T09:37:34.404Z,19.24
2022-08-31T09:42:37.077Z,19.24
2022-08-31T09:47:48.835Z,19.27
2022-08-31T09:53:11.448Z,19.31
2022-08-31T09:58:14.671Z,19.26
2022-08-31T10:03:28.658Z,19.21
2022-08-31T10:08:57.299Z,19.36
2022-08-31T10:14:08.934Z,19.44
2022-08-31T10:19:20.847Z,19.74
2022-08-31T10:24:34.809Z,19.87
2022-08-31T10:29:46.373Z,19.96
2022-08-31T10:35:06.184Z,20.02
2022-08-31T10:40:21.946Z,19.85
2022-08-31T10:45:26.665Z,19.46
2022-08-31T10:50:35.887Z,18.49
2022-08-31T10:55:54.298Z,19.40
2022-08-31T11:01:21.266Z,19.48
2022-08-31T11:07:28.165Z,19.42
2022-08-31T11:12:42.784Z,19.46
2022-08-31T11:18:12.494Z,19.58
2022-08-31T11:23:42.199Z,19.47
2022-08-31T11:28:50.395Z,19.23
2022-08-31T11:34:15.115Z,19.08
2022-08-31T11:39:31.315Z,19.38
2022-08-31T11:44:34.368Z,19.31
2022-08-31T11:49:46.968Z,19.20
2022-08-31T11:54:50.633Z,18.99
2022-08-31T11:59:56.397Z,18.64
2022-08-31T12:05:03.372Z,17.91
2022-08-31T12:10:23.012Z,18.74
2022-08-31T12:15:38.204Z,18.61
2022-08-31T12:21:08.160Z,18.54
2022-08-31T12:26:35.444Z,18.57
2022-08-31T12:31:40.505Z,18.60
2022-08-31T12:36:44.020Z,18.66
2022-08-31T12:42:06.551Z,18.87
2022-08-31T12:47:27.716Z,18.49
2022-08-31T12:52:45.764Z,18.70
2022-08-31T12:58:04.644Z,18.94
2022-08-31T13:03:27.304Z,18.63
2022-08-31T13:08:42.224Z,18.64
2022-08-31T13:13:44.665Z,18.47
2022-08-31T13:18:47.198Z,18.68
2022-08-31T13:23:50.854Z,18.52
2022-08-31T13:28:56.479Z,18.54
2022-08-31T13:34:01.436Z,18.14
2022-08-31T13:39:12.549Z,18.12
2022-08-31T13:44:21.564Z,18.15
2022-08-31T13:49:31.175Z,18.03
2022-08-31T13:54:36.149Z,17.76
2022-08-31T13:59:40.082Z,17.52
2022-08-31T14:04:57.498Z,17.99
2022-08-31T14:10:08.209Z,17.95
2022-08-31T14:15:16.099Z,17.86
2022-08-31T14:20:33.977Z,17.65
2022-08-31T14:25:36.336Z,17.38
2022-08-31T14:30:39.330Z,17.39
2022-08-31T14:35:41.865Z,17.08
2022-08-31T14:40:45.020Z,16.99
2022-08-31T14:45:47.844Z,17.09
2022-08-31T14:50:50.205Z,17.09
2022-08-31T14:55:52.470Z,16.82
2022-08-31T15:00:55.112Z,16.83
2022-08-31T15:06:00.386Z,16.79
2022-08-31T15:11:04.179Z,16.37
2022-08-31T15:16:08.417Z,16.53
2022-08-31T15:21:11.854Z,16.39
2022-08-31T15:26:17.353Z,16.27
2022-08-31T15:31:23.967Z,16.28
2022-08-31T15:36:28.193Z,16.52
2022-08-31T15:41:31.348Z,16.48
2022-08-31T15:46:52.272Z,16.23
2022-08-31T15:51:57.793Z,16.04
2022-08-31T15:57:02.645Z,16.06
2022-08-31T16:02:06.721Z,16.18
2022-08-31T16:07:11.381Z,16.18
2022-08-31T16:12:15.158Z,15.78
2022-08-31T16:17:20.216Z,15.88
2022-08-31T16:22:23.401Z,15.80
2022-08-31T16:27:34.327Z,15.90
2022-08-31T16:32:36.917Z,15.89
2022-08-31T16:37:40.390Z,15.79
2022-08-31T16:42:45.026Z,15.76
2022-08-31T16:47:47.479Z,15.70
2022-08-31T16:52:51.306Z,15.67
2022-08-31T16:57:53.811Z,15.82
2022-08-31T17:02:56.180Z,15.51
2022-08-31T17:07:58.680Z,15.48
2022-08-31T17:13:01.073Z,15.81
2022-08-31T17:18:03.467Z,15.60
2022-08-31T17:23:07.163Z,15.54
2022-08-31T17:28:10.339Z,15.53
2022-08-31T17:33:13.022Z,15.06
2022-08-31T17:38:15.539Z,15.34
2022-08-31T17:43:20.318Z,14.89
2022-08-31T17:48:24.083Z,15.35
2022-08-31T17:53:26.630Z,14.98
2022-08-31T17:58:29.195Z,15.13
2022-08-31T18:03:31.678Z,15.25
2022-08-31T18:08:37.863Z,15.06
2022-08-31T18:13:41.893Z,14.59
2022-08-31T18:18:48.499Z,14.86
2022-08-31T18:23:52.722Z,15.00
2022-08-31T18:28:57.944Z,13.82
2022-08-31T18:34:02.115Z,15.22
2022-08-31T18:39:06.824Z,14.76
2022-08-31T18:44:29.011Z,14.77
2022-08-31T18:49:35.716Z,15.01
2022-08-31T18:54:39.939Z,14.93
2022-08-31T18:59:46.365Z,14.92
2022-08-31T19:04:51.136Z,14.71
2022-08-31T19:09:53.949Z,14.61
2022-08-31T19:14:57.699Z,14.70
2022-08-31T19:20:03.597Z,14.83
2022-08-31T19:25:09.333Z,14.67
2022-08-31T19:30:13.982Z,14.59
2022-08-31T19:35:17.881Z,14.47
2022-08-31T19:40:20.430Z,14.43
2022-08-31T19:45:23.611Z,14.46
2022-08-31T19:50:26.806Z,14.51
2022-08-31T19:55:31.482Z,14.25
2022-08-31T20:00:36.326Z,14.03
2022-08-31T20:05:42.396Z,14.25
2022-08-31T20:10:46.184Z,14.26
2022-08-31T20:15:48.633Z,14.08
2022-08-31T20:20:51.225Z,13.99
2022-08-31T20:25:53.578Z,13.98
2022-08-31T20:31:00.202Z,13.43
2022-08-31T20:36:14.241Z,13.98
2022-08-31T20:41:16.807Z,13.89
2022-08-31T20:46:37.514Z,13.83
2022-08-31T20:51:41.183Z,13.32
2022-08-31T20:56:43.839Z,13.72
2022-08-31T21:01:46.330Z,13.58
2022-08-31T21:06:49.215Z,13.57
2022-08-31T21:11:51.727Z,13.23
2022-08-31T21:16:55.769Z,13.05
2022-08-31T21:22:01.086Z,13.11
2022-08-31T21:27:04.227Z,13.11
2022-08-31T21:32:09.196Z,13.25
2022-08-31T21:37:11.638Z,13.15
2022-08-31T21:42:14.080Z,13.14
2022-08-31T21:47:16.497Z,13.25
2022-08-31T21:52:18.759Z,13.22
2022-08-31T21:57:22.565Z,13.03
2022-08-31T22:02:25.135Z,13.24
2022-08-31T22:07:27.585Z,12.97
2022-08-31T22:12:29.828Z,13.05
2022-08-31T22:17:55.846Z,12.91
2022-08-31T22:22:55.494Z,12.88
2022-08-31T22:27:58.159Z,12.97
2022-08-31T22:33:01.364Z,12.77
2022-08-31T22:38:03.737Z,12.71
2022-08-31T22:43:06.229Z,12.29
2022-08-31T22:48:08.629Z,12.49
2022-08-31T22:53:12.404Z,12.17
2022-08-31T22:58:14.736Z,12.44
2022-08-31T23:03:17.339Z,12.54
2022-08-31T23:08:22.661Z,12.50
2022-08-31T23:13:44.870Z,12.36
2022-08-31T23:18:48.711Z,11.86
2022-08-31T23:23:53.349Z,11.73
2022-08-31T23:28:58.119Z,11.56
2022-08-31T23:34:00.380Z,11.33
2022-08-31T23:39:05.159Z,12.01
2022-08-31T23:44:09.490Z,11.89
2022-08-31T23:49:15.323Z,11.68
2022-08-31T23:54:18.584Z,11.69
2022-08-31T23:59:21.114Z,11.75
